sensor_id;sensor_type;location;lat;lon;timestamp;pressure;altitude;pressure_sealevel;temperature;humidity
48053;BME280;33824;51.600;5.718;2023-02-21T00:02:50;101925.56;;;9.50;100.00
48053;BME280;33824;51.600;5.718;2023-02-21T00:05:34;101924.97;;;9.56;100.00
48053;BME280;33824;51.600;5.718;2023-02-21T00:08:18;101923.16;;;9.47;100.00
48053;BME280;33824;51.600;5.718;2023-02-21T00:11:03;101923.72;;;9.41;100.00
48053;BME280;33824;51.600;5.718;2023-02-21T00:13:47;101914.22;;;9.39;100.00
48053;BME280;33824;51.600;5.718;2023-02-21T00:16:31;101914.06;;;9.50;100.00
48053;BME280;33824;51.600;5.718;2023-02-21T00:19:16;101921.06;;;9.51;100.00
48053;BME280;33824;51.600;5.718;2023-02-21T00:22:00;101914.47;;;9.45;100.00
48053;BME280;33824;51.600;5.718;2023-02-21T00:24:44;101915.16;;;9.47;100.00
48053;BME280;33824;51.600;5.718;2023-02-21T00:27:28;101919.66;;;9.37;100.00
48053;BME280;33824;51.600;5.718;2023-02-21T00:30:14;101919.09;;;9.34;100.00
48053;BME280;33824;51.600;5.718;2023-02-21T00:32:58;101918.53;;;9.30;100.00
48053;BME280;33824;51.600;5.718;2023-02-21T00:35:42;101913.22;;;9.30;100.00
48053;BME280;33824;51.600;5.718;2023-02-21T00:38:26;101911.69;;;9.28;100.00
48053;BME280;33824;51.600;5.718;2023-02-21T00:41:11;101909.97;;;9.36;100.00
48053;BME280;33824;51.600;5.718;2023-02-21T00:43:55;101908.44;;;9.34;100.00
48053;BME280;33824;51.600;5.718;2023-02-21T00:46:39;101919.38;;;9.31;100.00
48053;BME280;33824;51.600;5.718;2023-02-21T00:49:23;101918.25;;;9.33;100.00
48053;BME280;33824;51.600;5.718;2023-02-21T00:52:07;101916.72;;;9.40;100.00
48053;BME280;33824;51.600;5.718;2023-02-21T00:54:51;101916.03;;;9.38;100.00
48053;BME280;33824;51.600;5.718;2023-02-21T00:57:35;101917.44;;;9.42;100.00
48053;BME280;33824;51.600;5.718;2023-02-21T01:00:21;101909.72;;;9.39;100.00
48053;BME280;33824;51.600;5.718;2023-02-21T01:03:06;101907.59;;;9.33;100.00
48053;BME280;33824;51.600;5.718;2023-02-21T01:05:51;101903.00;;;9.35;100.00
48053;BME280;33824;51.600;5.718;2023-02-21T01:08:39;101905.25;;;9.30;100.00
48053;BME280;33824;51.600;5.718;2023-02-21T01:11:24;101894.47;;;9.32;100.00
48053;BME280;33824;51.600;5.718;2023-02-21T01:14:09;101899.78;;;9.32;100.00
48053;BME280;33824;51.600;5.718;2023-02-21T01:16:53;101899.50;;;9.35;100.00
48053;BME280;33824;51.600;5.718;2023-02-21T01:19:37;101893.19;;;9.36;100.00
48053;BME280;33824;51.600;5.718;2023-02-21T01:22:21;101899.63;;;9.33;100.00
48053;BME280;33824;51.600;5.718;2023-02-21T01:25:06;101891.63;;;9.33;100.00
48053;BME280;33824;51.600;5.718;2023-02-21T01:27:50;101886.59;;;9.30;100.00
48053;BME280;33824;51.600;5.718;2023-02-21T01:30:36;101889.97;;;9.23;100.00
48053;BME280;33824;51.600;5.718;2023-02-21T01:33:20;101881.28;;;9.21;100.00
48053;BME280;33824;51.600;5.718;2023-02-21T01:36:08;101887.44;;;9.21;100.00
48053;BME280;33824;51.600;5.718;2023-02-21T01:38:52;101886.88;;;9.18;100.00
48053;BME280;33824;51.600;5.718;2023-02-21T01:41:37;101891.50;;;9.15;100.00
48053;BME280;33824;51.600;5.718;2023-02-21T01:47:18;101891.06;;;9.10;100.00
48053;BME280;33824;51.600;5.718;2023-02-21T01:50:10;101883.25;;;9.09;100.00
48053;BME280;33824;51.600;5.718;2023-02-21T01:52:55;101887.16;;;9.05;100.00
48053;BME280;33824;51.600;5.718;2023-02-21T01:55:40;101884.91;;;9.10;100.00
48053;BME280;33824;51.600;5.718;2023-02-21T01:58:28;101884.50;;;9.05;100.00
48053;BME280;33824;51.600;5.718;2023-02-21T02:01:20;101880.56;;;8.99;100.00
48053;BME280;33824;51.600;5.718;2023-02-21T02:04:06;101868.66;;;9.03;100.00
48053;BME280;33824;51.600;5.718;2023-02-21T02:06:51;101870.34;;;9.04;100.00
48053;BME280;33824;51.600;5.718;2023-02-21T02:09:35;101861.53;;;9.04;100.00
48053;BME280;33824;51.600;5.718;2023-02-21T02:12:39;101862.63;;;8.92;100.00
48053;BME280;33824;51.600;5.718;2023-02-21T02:15:19;101862.66;;;9.01;100.00
48053;BME280;33824;51.600;5.718;2023-02-21T02:18:15;101863.19;;;8.76;100.00
48053;BME280;33824;51.600;5.718;2023-02-21T02:21:10;101862.19;;;8.87;100.00
48053;BME280;33824;51.600;5.718;2023-02-21T02:26:56;101846.53;;;8.74;100.00
48053;BME280;33824;51.600;5.718;2023-02-21T02:29:44;101860.22;;;8.79;100.00
48053;BME280;33824;51.600;5.718;2023-02-21T02:32:32;101859.41;;;8.79;100.00
48053;BME280;33824;51.600;5.718;2023-02-21T02:35:30;101856.31;;;8.74;100.00
48053;BME280;33824;51.600;5.718;2023-02-21T02:38:25;101855.88;;;8.68;100.00
48053;BME280;33824;51.600;5.718;2023-02-21T02:43:41;101854.66;;;8.82;100.00
48053;BME280;33824;51.600;5.718;2023-02-21T02:46:29;101846.38;;;8.66;100.00
48053;BME280;33824;51.600;5.718;2023-02-21T02:49:02;101846.41;;;8.85;100.00
48053;BME280;33824;51.600;5.718;2023-02-21T02:51:31;101843.72;;;8.95;100.00
48053;BME280;33824;51.600;5.718;2023-02-21T02:53:58;101848.09;;;9.05;100.00
48053;BME280;33824;51.600;5.718;2023-02-21T02:56:24;101843.19;;;9.01;100.00
48053;BME280;33824;51.600;5.718;2023-02-21T03:10:16;101849.06;;;8.85;100.00
48053;BME280;33824;51.600;5.718;2023-02-21T03:12:52;101847.66;;;8.91;100.00
48053;BME280;33824;51.600;5.718;2023-02-21T03:15:25;101843.19;;;9.01;100.00
48053;BME280;33824;51.600;5.718;2023-02-21T03:18:00;101848.53;;;9.01;100.00
48053;BME280;33824;51.600;5.718;2023-02-21T03:20:30;101845.84;;;9.01;100.00
48053;BME280;33824;51.600;5.718;2023-02-21T03:22:57;101854.25;;;8.96;100.00
48053;BME280;33824;51.600;5.718;2023-02-21T03:25:24;101839.81;;;8.99;100.00
48053;BME280;33824;51.600;5.718;2023-02-21T03:27:51;101848.22;;;8.94;100.00
48053;BME280;33824;51.600;5.718;2023-02-21T03:30:18;101844.75;;;8.94;100.00
48053;BME280;33824;51.600;5.718;2023-02-21T03:32:48;101837.28;;;8.88;100.00
48053;BME280;33824;51.600;5.718;2023-02-21T03:35:17;101832.97;;;8.96;100.00
48053;BME280;33824;51.600;5.718;2023-02-21T03:37:46;101838.44;;;8.85;100.00
48053;BME280;33824;51.600;5.718;2023-02-21T03:40:21;101845.69;;;8.83;100.00
48053;BME280;33824;51.600;5.718;2023-02-21T03:42:51;101844.59;;;8.95;100.00
48053;BME280;33824;51.600;5.718;2023-02-21T03:45:17;101841.50;;;8.90;100.00
48053;BME280;33824;51.600;5.718;2023-02-21T03:47:43;101853.41;;;8.86;100.00
48053;BME280;33824;51.600;5.718;2023-02-21T03:50:09;101840.94;;;8.87;100.00
48053;BME280;33824;51.600;5.718;2023-02-21T03:52:34;101841.66;;;8.89;100.00
48053;BME280;33824;51.600;5.718;2023-02-21T03:55:00;101836.59;;;8.86;100.00
48053;BME280;33824;51.600;5.718;2023-02-21T03:57:26;101840.81;;;8.88;100.00
48053;BME280;33824;51.600;5.718;2023-02-21T03:59:51;101845.84;;;8.91;100.00
48053;BME280;33824;51.600;5.718;2023-02-21T04:02:17;101850.31;;;8.91;100.00
48053;BME280;33824;51.600;5.718;2023-02-21T04:04:44;101843.91;;;8.93;100.00
48053;BME280;33824;51.600;5.718;2023-02-21T04:07:10;101844.16;;;9.00;100.00
48053;BME280;33824;51.600;5.718;2023-02-21T04:09:37;101846.25;;;9.06;100.00
48053;BME280;33824;51.600;5.718;2023-02-21T04:12:04;101844.28;;;8.98;100.00
48053;BME280;33824;51.600;5.718;2023-02-21T04:14:29;101845.56;;;8.94;100.00
48053;BME280;33824;51.600;5.718;2023-02-21T04:16:55;101842.91;;;8.94;100.00
48053;BME280;33824;51.600;5.718;2023-02-21T04:19:20;101841.38;;;8.92;100.00
48053;BME280;33824;51.600;5.718;2023-02-21T04:21:46;101836.88;;;8.92;100.00
48053;BME280;33824;51.600;5.718;2023-02-21T04:24:11;101830.31;;;8.96;100.00
48053;BME280;33824;51.600;5.718;2023-02-21T04:26:37;101834.78;;;8.96;100.00
48053;BME280;33824;51.600;5.718;2023-02-21T04:29:03;101828.34;;;8.98;100.00
48053;BME280;33824;51.600;5.718;2023-02-21T04:31:29;101827.94;;;8.93;100.00
48053;BME280;33824;51.600;5.718;2023-02-21T04:33:55;101825.97;;;8.86;100.00
48053;BME280;33824;51.600;5.718;2023-02-21T04:36:20;101824.97;;;8.87;100.00
48053;BME280;33824;51.600;5.718;2023-02-21T04:38:46;101820.94;;;8.92;100.00
48053;BME280;33824;51.600;5.718;2023-02-21T04:41:11;101823.72;;;8.91;100.00
48053;BME280;33824;51.600;5.718;2023-02-21T04:43:37;101835.34;;;8.90;100.00
48053;BME280;33824;51.600;5.718;2023-02-21T04:46:02;101829.75;;;8.93;100.00
48053;BME280;33824;51.600;5.718;2023-02-21T04:48:28;101827.22;;;8.91;100.00
48053;BME280;33824;51.600;5.718;2023-02-21T04:50:53;101827.66;;;8.96;100.00
48053;BME280;33824;51.600;5.718;2023-02-21T04:53:19;101828.22;;;9.00;100.00
48053;BME280;33824;51.600;5.718;2023-02-21T04:55:44;101821.34;;;8.97;100.00
48053;BME280;33824;51.600;5.718;2023-02-21T04:58:10;101818.94;;;8.94;100.00
48053;BME280;33824;51.600;5.718;2023-02-21T05:00:35;101813.50;;;8.96;100.00
48053;BME280;33824;51.600;5.718;2023-02-21T05:03:01;101817.41;;;8.92;100.00
48053;BME280;33824;51.600;5.718;2023-02-21T05:05:26;101811.53;;;8.88;100.00
48053;BME280;33824;51.600;5.718;2023-02-21T05:07:52;101803.97;;;8.84;100.00
48053;BME280;33824;51.600;5.718;2023-02-21T05:10:19;101811.28;;;8.82;100.00
48053;BME280;33824;51.600;5.718;2023-02-21T05:12:45;101818.41;;;8.81;100.00
48053;BME280;33824;51.600;5.718;2023-02-21T05:15:12;101821.50;;;8.86;100.00
48053;BME280;33824;51.600;5.718;2023-02-21T05:17:37;101824.84;;;8.88;100.00
48053;BME280;33824;51.600;5.718;2023-02-21T05:20:04;101835.34;;;8.90;100.00
48053;BME280;33824;51.600;5.718;2023-02-21T05:22:40;101830.72;;;8.92;100.00
48053;BME280;33824;51.600;5.718;2023-02-21T05:25:20;101840.25;;;8.85;100.00
48053;BME280;33824;51.600;5.718;2023-02-21T05:27:47;101837.28;;;8.88;100.00
48053;BME280;33824;51.600;5.718;2023-02-21T05:30:14;101833.94;;;8.86;100.00
48053;BME280;33824;51.600;5.718;2023-02-21T05:32:41;101826.50;;;8.80;100.00
48053;BME280;33824;51.600;5.718;2023-02-21T05:35:07;101826.66;;;8.78;100.00
48053;BME280;33824;51.600;5.718;2023-02-21T05:37:33;101821.19;;;8.80;100.00
48053;BME280;33824;51.600;5.718;2023-02-21T05:39:59;101823.72;;;8.91;100.00
48053;BME280;33824;51.600;5.718;2023-02-21T05:42:24;101821.06;;;8.91;100.00
48053;BME280;33824;51.600;5.718;2023-02-21T05:44:50;101823.31;;;8.95;100.00
48053;BME280;33824;51.600;5.718;2023-02-21T05:47:15;101823.72;;;8.91;100.00
48053;BME280;33824;51.600;5.718;2023-02-21T05:49:41;101814.78;;;8.82;100.00
48053;BME280;33824;51.600;5.718;2023-02-21T05:52:11;101820.78;;;8.75;100.00
48053;BME280;33824;51.600;5.718;2023-02-21T05:54:37;101821.34;;;8.88;100.00
48053;BME280;33824;51.600;5.718;2023-02-21T05:57:03;101828.78;;;8.94;100.00
48053;BME280;33824;51.600;5.718;2023-02-21T05:59:28;101823.47;;;8.94;100.00
48053;BME280;33824;51.600;5.718;2023-02-21T06:01:54;101824.56;;;8.91;100.00
48053;BME280;33824;51.600;5.718;2023-02-21T06:04:21;101824.16;;;8.86;100.00
48053;BME280;33824;51.600;5.718;2023-02-21T06:06:47;101824.97;;;8.87;100.00
48053;BME280;33824;51.600;5.718;2023-02-21T06:09:13;101825.41;;;8.92;100.00
48053;BME280;33824;51.600;5.718;2023-02-21T06:11:39;101830.16;;;8.98;100.00
48053;BME280;33824;51.600;5.718;2023-02-21T06:14:07;101831.28;;;8.95;100.00
48053;BME280;33824;51.600;5.718;2023-02-21T06:16:37;101820.81;;;8.94;100.00
48053;BME280;33824;51.600;5.718;2023-02-21T06:19:05;101826.94;;;8.94;100.00
48053;BME280;33824;51.600;5.718;2023-02-21T06:21:31;101824.00;;;8.88;100.00
48053;BME280;33824;51.600;5.718;2023-02-21T06:23:57;101827.38;;;8.90;100.00
48053;BME280;33824;51.600;5.718;2023-02-21T06:26:23;101822.88;;;8.90;100.00
48053;BME280;33824;51.600;5.718;2023-02-21T06:28:49;101828.19;;;8.90;100.00
48053;BME280;33824;51.600;5.718;2023-02-21T06:31:16;101830.03;;;8.90;100.00
48053;BME280;33824;51.600;5.718;2023-02-21T06:33:41;101828.34;;;8.89;100.00
48053;BME280;33824;51.600;5.718;2023-02-21T06:36:11;101837.44;;;8.77;100.00
48053;BME280;33824;51.600;5.718;2023-02-21T06:38:37;101840.09;;;8.77;100.00
48053;BME280;33824;51.600;5.718;2023-02-21T06:41:05;101837.16;;;8.80;100.00
48053;BME280;33824;51.600;5.718;2023-02-21T06:43:31;101838.44;;;8.85;100.00
48053;BME280;33824;51.600;5.718;2023-02-21T06:45:56;101835.91;;;8.93;100.00
48053;BME280;33824;51.600;5.718;2023-02-21T06:48:22;101837.56;;;8.94;100.00
48053;BME280;33824;51.600;5.718;2023-02-21T06:50:47;101833.78;;;8.87;100.00
48053;BME280;33824;51.600;5.718;2023-02-21T06:53:13;101832.13;;;8.86;100.00
48053;BME280;33824;51.600;5.718;2023-02-21T06:55:38;101834.19;;;8.83;100.00
48053;BME280;33824;51.600;5.718;2023-02-21T06:58:04;101850.75;;;8.86;100.00
48053;BME280;33824;51.600;5.718;2023-02-21T07:00:29;101851.56;;;8.87;100.00
48053;BME280;33824;51.600;5.718;2023-02-21T07:02:55;101849.19;;;8.84;100.00
48053;BME280;33824;51.600;5.718;2023-02-21T07:05:20;101848.63;;;8.80;100.00
48053;BME280;33824;51.600;5.718;2023-02-21T07:07:46;101838.00;;;8.80;100.00
48053;BME280;33824;51.600;5.718;2023-02-21T07:10:11;101837.56;;;8.75;100.00
48053;BME280;33824;51.600;5.718;2023-02-21T07:12:38;101845.97;;;8.80;100.00
48053;BME280;33824;51.600;5.718;2023-02-21T07:15:04;101848.50;;;8.82;100.00
48053;BME280;33824;51.600;5.718;2023-02-21T07:17:29;101840.38;;;8.83;100.00
48053;BME280;33824;51.600;5.718;2023-02-21T07:19:55;101845.00;;;8.81;100.00
48053;BME280;33824;51.600;5.718;2023-02-21T07:22:20;101843.03;;;8.83;100.00
48053;BME280;33824;51.600;5.718;2023-02-21T07:24:52;101840.13;;;8.86;100.00
48053;BME280;33824;51.600;5.718;2023-02-21T07:27:18;101834.47;;;8.80;100.00
48053;BME280;33824;51.600;5.718;2023-02-21T07:29:48;101828.75;;;8.75;100.00
48053;BME280;33824;51.600;5.718;2023-02-21T07:32:15;101834.47;;;8.80;100.00
48053;BME280;33824;51.600;5.718;2023-02-21T07:34:41;101841.22;;;8.84;100.00
48053;BME280;33824;51.600;5.718;2023-02-21T07:37:07;101843.59;;;8.87;100.00
48053;BME280;33824;51.600;5.718;2023-02-21T07:39:33;101837.00;;;8.72;100.00
48053;BME280;33824;51.600;5.718;2023-02-21T07:41:58;101831.25;;;8.66;100.00
48053;BME280;33824;51.600;5.718;2023-02-21T07:44:24;101841.47;;;8.61;100.00
48053;BME280;33824;51.600;5.718;2023-02-21T07:46:49;101844.81;;;8.54;100.00
48053;BME280;33824;51.600;5.718;2023-02-21T07:49:15;101846.09;;;8.59;100.00
48053;BME280;33824;51.600;5.718;2023-02-21T07:51:40;101855.47;;;8.63;100.00
48053;BME280;33824;51.600;5.718;2023-02-21T07:54:06;101846.78;;;8.61;100.00
48053;BME280;33824;51.600;5.718;2023-02-21T07:56:31;101845.53;;;8.56;100.00
48053;BME280;33824;51.600;5.718;2023-02-21T07:58:57;101849.28;;;8.53;100.00
48053;BME280;33824;51.600;5.718;2023-02-21T08:01:24;101855.03;;;8.58;100.00
48053;BME280;33824;51.600;5.718;2023-02-21T08:03:50;101859.09;;;8.62;100.00
48053;BME280;33824;51.600;5.718;2023-02-21T08:06:16;101862.88;;;8.70;100.00
48053;BME280;33824;51.600;5.718;2023-02-21T08:08:43;101860.50;;;8.76;100.00
48053;BME280;33824;51.600;5.718;2023-02-21T08:11:10;101861.47;;;8.75;100.00
48053;BME280;33824;51.600;5.718;2023-02-21T08:13:36;101858.41;;;8.70;100.00
48053;BME280;33824;51.600;5.718;2023-02-21T08:16:02;101855.19;;;8.66;100.00
48053;BME280;33824;51.600;5.718;2023-02-21T08:18:27;101858.69;;;8.77;100.00
48053;BME280;33824;51.600;5.718;2023-02-21T08:20:54;101854.38;;;8.85;100.00
48053;BME280;33824;51.600;5.718;2023-02-21T08:23:20;101860.38;;;8.78;100.00
48053;BME280;33824;51.600;5.718;2023-02-21T08:25:46;101866.84;;;8.85;100.00
48053;BME280;33824;51.600;5.718;2023-02-21T08:28:13;101857.03;;;8.95;100.00
48053;BME280;33824;51.600;5.718;2023-02-21T08:30:38;101863.47;;;9.02;100.00
48053;BME280;33824;51.600;5.718;2023-02-21T08:33:04;101852.84;;;8.92;100.00
48053;BME280;33824;51.600;5.718;2023-02-21T08:35:30;101855.06;;;8.87;100.00
48053;BME280;33824;51.600;5.718;2023-02-21T08:37:56;101853.13;;;8.89;100.00
48053;BME280;33824;51.600;5.718;2023-02-21T08:40:22;101850.47;;;8.99;100.00
48053;BME280;33824;51.600;5.718;2023-02-21T08:42:50;101850.59;;;9.07;100.00
48053;BME280;33824;51.600;5.718;2023-02-21T08:45:18;101853.81;;;9.10;100.00
48053;BME280;33824;51.600;5.718;2023-02-21T08:47:44;101852.56;;;9.14;100.00
48053;BME280;33824;51.600;5.718;2023-02-21T08:50:09;101846.41;;;9.14;100.00
48053;BME280;33824;51.600;5.718;2023-02-21T08:52:38;101851.16;;;8.91;100.00
48053;BME280;33824;51.600;5.718;2023-02-21T08:55:05;101854.66;;;8.82;100.00
48053;BME280;33824;51.600;5.718;2023-02-21T08:57:31;101846.00;;;8.90;100.00
48053;BME280;33824;51.600;5.718;2023-02-21T08:59:59;101847.09;;;8.87;100.00
48053;BME280;33824;51.600;5.718;2023-02-21T09:02:25;101841.25;;;8.93;100.00
48053;BME280;33824;51.600;5.718;2023-02-21T09:04:51;101843.03;;;9.02;100.00
48053;BME280;33824;51.600;5.718;2023-02-21T09:07:18;101846.41;;;9.04;100.00
48053;BME280;33824;51.600;5.718;2023-02-21T09:09:44;101839.69;;;9.00;100.00
48053;BME280;33824;51.600;5.718;2023-02-21T09:12:10;101842.34;;;9.00;100.00
48053;BME280;33824;51.600;5.718;2023-02-21T09:14:40;101832.97;;;9.06;100.00
48053;BME280;33824;51.600;5.718;2023-02-21T09:17:08;101834.53;;;9.08;100.00
48053;BME280;33824;51.600;5.718;2023-02-21T09:19:36;101835.75;;;9.14;100.00
48053;BME280;33824;51.600;5.718;2023-02-21T09:22:02;101835.78;;;9.24;100.00
48053;BME280;33824;51.600;5.718;2023-02-21T09:24:28;101828.75;;;9.23;100.00
48053;BME280;33824;51.600;5.718;2023-02-21T09:26:55;101824.03;;;9.17;100.00
48053;BME280;33824;51.600;5.718;2023-02-21T09:29:28;101825.09;;;9.33;100.00
48053;BME280;33824;51.600;5.718;2023-02-21T09:31:54;101819.50;;;9.46;100.00
48053;BME280;33824;51.600;5.718;2023-02-21T09:34:19;101828.72;;;9.51;100.00
48053;BME280;33824;51.600;5.718;2023-02-21T09:36:46;101815.31;;;9.43;100.00
48053;BME280;33824;51.600;5.718;2023-02-21T09:39:13;101817.13;;;9.43;100.00
48053;BME280;33824;51.600;5.718;2023-02-21T09:41:41;101829.00;;;9.48;100.00
48053;BME280;33824;51.600;5.718;2023-02-21T09:44:25;101829.19;;;9.28;100.00
48053;BME280;33824;51.600;5.718;2023-02-21T09:47:03;101825.25;;;9.32;100.00
48053;BME280;33824;51.600;5.718;2023-02-21T09:49:32;101813.91;;;9.39;100.00
48053;BME280;33824;51.600;5.718;2023-02-21T09:52:00;101823.84;;;9.47;100.00
48053;BME280;33824;51.600;5.718;2023-02-21T09:54:30;101826.16;;;9.59;100.00
48053;BME280;33824;51.600;5.718;2023-02-21T09:57:00;101821.94;;;9.76;100.00
48053;BME280;33824;51.600;5.718;2023-02-21T09:59:26;101816.31;;;9.79;100.00
48053;BME280;33824;51.600;5.718;2023-02-21T10:08:08;101826.84;;;9.71;100.00
48053;BME280;33824;51.600;5.718;2023-02-21T10:10:47;101820.13;;;9.67;100.00
48053;BME280;33824;51.600;5.718;2023-02-21T10:13:25;101822.56;;;9.51;100.00
48053;BME280;33824;51.600;5.718;2023-02-21T10:15:59;101828.16;;;9.57;100.00
48053;BME280;33824;51.600;5.718;2023-02-21T10:18:44;101821.56;;;9.52;100.00
48053;BME280;33824;51.600;5.718;2023-02-21T10:21:27;101821.59;;;9.42;100.00
48053;BME280;33824;51.600;5.718;2023-02-21T10:23:55;101827.28;;;9.67;100.00
48053;BME280;33824;51.600;5.718;2023-02-21T10:26:29;101826.94;;;9.89;100.00
48053;BME280;33824;51.600;5.718;2023-02-21T10:28:56;101829.19;;;9.84;100.00
48053;BME280;33824;51.600;5.718;2023-02-21T10:31:35;101822.19;;;9.83;100.00
48053;BME280;33824;51.600;5.718;2023-02-21T10:34:04;101830.34;;;9.81;100.00
48053;BME280;33824;51.600;5.718;2023-02-21T10:36:33;101827.94;;;9.88;100.00
48053;BME280;33824;51.600;5.718;2023-02-21T10:39:10;101821.88;;;9.86;100.00
48053;BME280;33824;51.600;5.718;2023-02-21T10:41:40;101819.38;;;9.84;100.00
48053;BME280;33824;51.600;5.718;2023-02-21T10:44:38;101821.44;;;9.53;100.00
48053;BME280;33824;51.600;5.718;2023-02-21T10:50:07;101826.00;;;9.71;100.00
48053;BME280;33824;51.600;5.718;2023-02-21T10:52:47;101822.63;;;9.78;100.00
48053;BME280;33824;51.600;5.718;2023-02-21T10:55:21;101831.44;;;9.88;100.00
48053;BME280;33824;51.600;5.718;2023-02-21T10:57:53;101827.59;;;10.00;100.00
48053;BME280;33824;51.600;5.718;2023-02-21T11:02:56;101828.09;;;9.77;100.00
48053;BME280;33824;51.600;5.718;2023-02-21T11:05:22;101820.72;;;9.98;100.00
48053;BME280;33824;51.600;5.718;2023-02-21T11:07:58;101822.63;;;9.78;100.00
48053;BME280;33824;51.600;5.718;2023-02-21T11:10:32;101822.59;;;9.88;100.00
48053;BME280;33824;51.600;5.718;2023-02-21T11:15:41;101814.91;;;9.85;100.00
48053;BME280;33824;51.600;5.718;2023-02-21T11:18:23;101806.84;;;10.04;100.00
48053;BME280;33824;51.600;5.718;2023-02-21T11:20:50;101802.44;;;10.22;100.00
48053;BME280;33824;51.600;5.718;2023-02-21T11:23:29;101807.44;;;10.25;100.00
48053;BME280;33824;51.600;5.718;2023-02-21T11:26:09;101804.69;;;10.17;100.00
48053;BME280;33824;51.600;5.718;2023-02-21T11:28:40;101804.88;;;10.33;100.00
48053;BME280;33824;51.600;5.718;2023-02-21T11:31:14;101804.91;;;10.24;100.00
48053;BME280;33824;51.600;5.718;2023-02-21T11:34:02;101798.28;;;10.37;100.00
48053;BME280;33824;51.600;5.718;2023-02-21T11:36:38;101795.56;;;10.65;100.00
48053;BME280;33824;51.600;5.718;2023-02-21T11:39:22;101793.75;;;10.65;100.00
48053;BME280;33824;51.600;5.718;2023-02-21T11:41:55;101786.03;;;10.62;100.00
48053;BME280;33824;51.600;5.718;2023-02-21T11:44:31;101780.69;;;10.62;100.00
48053;BME280;33824;51.600;5.718;2023-02-21T11:52:13;101782.28;;;10.55;100.00
48053;BME280;33824;51.600;5.718;2023-02-21T11:54:42;101781.84;;;10.77;100.00
48053;BME280;33824;51.600;5.718;2023-02-21T11:59:53;101781.84;;;10.59;100.00
48053;BME280;33824;51.600;5.718;2023-02-21T12:05:00;101773.44;;;10.54;98.96
48053;BME280;33824;51.600;5.718;2023-02-21T12:10:03;101773.38;;;10.64;99.91
48053;BME280;33824;51.600;5.718;2023-02-21T12:12:55;101766.06;;;10.48;98.09
48053;BME280;33824;51.600;5.718;2023-02-21T12:15:55;101764.41;;;10.65;98.59
48053;BME280;33824;51.600;5.718;2023-02-21T12:21:32;101748.69;;;10.80;98.91
48053;BME280;33824;51.600;5.718;2023-02-21T12:24:24;101748.38;;;10.83;98.27
48053;BME280;33824;51.600;5.718;2023-02-21T12:27:09;101746.69;;;10.82;95.99
48053;BME280;33824;51.600;5.718;2023-02-21T12:29:48;101745.00;;;10.81;97.16
48053;BME280;33824;51.600;5.718;2023-02-21T12:32:48;101744.78;;;10.92;98.27
48053;BME280;33824;51.600;5.718;2023-02-21T12:40:55;101744.84;;;11.18;97.68
48053;BME280;33824;51.600;5.718;2023-02-21T12:49:40;101732.13;;;10.94;95.84
48053;BME280;33824;51.600;5.718;2023-02-21T12:52:24;101740.59;;;11.07;96.68
48053;BME280;33824;51.600;5.718;2023-02-21T12:55:03;101732.19;;;11.02;96.33
48053;BME280;33824;51.600;5.718;2023-02-21T12:57:37;101732.84;;;11.22;97.03
48053;BME280;33824;51.600;5.718;2023-02-21T13:00:23;101728.38;;;11.30;97.06
48053;BME280;33824;51.600;5.718;2023-02-21T13:06:01;101723.63;;;11.42;96.07
48053;BME280;33824;51.600;5.718;2023-02-21T13:08:34;101719.81;;;11.44;95.76
48053;BME280;33824;51.600;5.718;2023-02-21T13:13:36;101724.31;;;11.18;94.54
48053;BME280;33824;51.600;5.718;2023-02-21T13:16:05;101724.41;;;11.08;94.71
48053;BME280;33824;51.600;5.718;2023-02-21T13:18:57;101718.69;;;11.03;94.76
48053;BME280;33824;51.600;5.718;2023-02-21T13:21:51;101718.66;;;10.95;94.29
48053;BME280;33824;51.600;5.718;2023-02-21T13:24:54;101716.78;;;10.96;94.24
48053;BME280;33824;51.600;5.718;2023-02-21T13:27:36;101718.69;;;11.03;94.38
48053;BME280;33824;51.600;5.718;2023-02-21T13:30:13;101710.06;;;11.10;94.64
48053;BME280;33824;51.600;5.718;2023-02-21T13:32:49;101707.66;;;10.98;93.94
48053;BME280;33824;51.600;5.718;2023-02-21T13:35:23;101699.19;;;11.03;93.89
48053;BME280;33824;51.600;5.718;2023-02-21T13:37:51;101697.25;;;11.13;94.07
48053;BME280;33824;51.600;5.718;2023-02-21T13:40:24;101695.03;;;11.08;93.51
48053;BME280;33824;51.600;5.718;2023-02-21T13:43:05;101695.56;;;10.86;93.68
48053;BME280;33824;51.600;5.718;2023-02-21T13:45:34;101690.88;;;11.06;94.21
48053;BME280;33824;51.600;5.718;2023-02-21T13:50:44;101693.94;;;10.93;93.08
48053;BME280;33824;51.600;5.718;2023-02-21T13:53:18;101689.66;;;11.00;93.92
48053;BME280;33824;51.600;5.718;2023-02-21T13:58:34;101683.38;;;10.84;93.36
48053;BME280;33824;51.600;5.718;2023-02-21T14:03:54;101679.94;;;10.91;94.28
48053;BME280;33824;51.600;5.718;2023-02-21T14:08:48;101683.38;;;11.10;93.38
48053;BME280;33824;51.600;5.718;2023-02-21T14:11:15;101686.38;;;11.06;93.13
48053;BME280;33824;51.600;5.718;2023-02-21T14:13:55;101685.03;;;10.85;92.55
48053;BME280;33824;51.600;5.718;2023-02-21T14:16:25;101679.03;;;10.83;92.62
48053;BME280;33824;51.600;5.718;2023-02-21T14:21:39;101674.25;;;10.69;92.89
48053;BME280;33824;51.600;5.718;2023-02-21T14:26:42;101682.09;;;10.70;93.61
48053;BME280;33824;51.600;5.718;2023-02-21T14:29:11;101675.41;;;10.48;93.21
48053;BME280;33824;51.600;5.718;2023-02-21T14:45:17;101666.09;;;10.17;94.59
48053;BME280;33824;51.600;5.718;2023-02-21T15:01:39;101657.34;;;10.60;94.17
48053;BME280;33824;51.600;5.718;2023-02-21T15:09:27;101645.72;;;10.69;93.86
48053;BME280;33824;51.600;5.718;2023-02-21T15:11:53;101650.00;;;10.80;93.72
48053;BME280;33824;51.600;5.718;2023-02-21T15:14:26;101645.50;;;10.63;92.82
48053;BME280;33824;51.600;5.718;2023-02-21T15:17:16;101643.53;;;10.47;92.81